KIFP/IFP METAR and TAF weather

Enter ICAO airport designator
Station Type Date Time Source
KIFP METAR 2022/05/23 14:49 UTC NOAA

KIFP 231449Z 34020KT 20SM CLR 28/M04 A2983


Station Type Date Time Source
KIFP Decoded METAR 2022/05/23 14:49 UTC NOAA

Bullhead City, Laughlin/Bullhead International Airport, AZ, United States (KIFP) 35-09-27N 114-33-34W
May 23, 2022 - 10:49 AM EDT / 2022.05.23 1449 UTC
Wind: from the NNW (340 degrees) at 23 MPH (20 KT):0
Visibility: 20 mile(s):0
Sky conditions: clear
Temperature: 82 F (28 C)
Dew Point: 24 F (-4 C)
Relative Humidity: 12%
Pressure (altimeter): 29.83 in. Hg (1010 hPa)
ob: KIFP 231449Z 34020KT 20SM CLR 28/M04 A2983
cycle: 15

Station Type Date Time Source
KIFP TAF 2022/05/23 12:22 UTC NOAA

TAF KIFP 231120Z 2312/2412 VRB06KT P6SM SCT250
FM231300 36015G22KT P6SM SCT250
FM232000 35010KT P6SM SKC
FM240200 VRB06KT P6SM SKC

Example: see airport list